Gainesville Regional Airport
KGNV : rendu visible

Aérodrome :











RETROUVEZ-NOUS SUR...

 
LOGIN :

S'inscrire | Disclaimer

   EN    FR    IT 

 









Légende :    VFR   VFR Marginal   IFR   IFR Intensif   IFR Très Intensif
Visi : 
Plafond : 
>= 8 km
>= 3000ft
5 à 8 km
1000 à 3000 ft
1500m à 5 km
500 à 1000 ft
800 à 1500m
200 à 500 ft
< 800m
< 200 ft
Symboles :   Orages  Brouillard  Fortes neiges  Fortes précipitations  Vent > 20 kt






- Altitude de l'aérodrome : 152 ft
- Code IATA : GNV


KGNV - Gainesville Regional

DERNIER METAR :
  • 210153Z 01005KT 10SM CLR 06/02 A3030 RMK AO2 SLP263 T00610017

METARs EXPIRÉS :
  • 210053Z 03004KT 10SM CLR 07/02 A3028 RMK AO2 SLP257 T00670017
  • 202353Z 36004KT 10SM CLR 09/02 A3026 RMK AO2 SLP248 T00890017 10139 20089 53014

TAF KGNV
Valide du 21 à 00h jusqu'au 22 à 00h UTC


202335Z 2100/2124 35006KT P6SM FEW250
FM211500 36011G18KT P6SM SKC



MET'MAP, la Météo Aéronautique d'un coup d'oeil ! - Copyright ORBIFLY Décembre 2007 - Disclaimer

ORBIFLY MET'MAP TEAM :

Programmation & Développement : Alexandra Zaïnal
Sur une idée originale de : Baudouin d'Aumeries
Assistance à la programmation : Marc-Olivier Méhu
Soutien technique & logistique : Manuel Goepfert

Contact : metmap@orbifly.com




SOURCES & CREDITS :

   NOAA       Earth
Advisory